sensor_id;sensor_type;location;lat;lon;timestamp;P1;durP1;ratioP1;P2;durP2;ratioP2
78877;SDS011;68257;43.514;1.498;2024-01-27T00:02:17;52.72;;;25.67;;
78877;SDS011;68257;43.514;1.498;2024-01-27T00:04:42;49.28;;;26.50;;
78877;SDS011;68257;43.514;1.498;2024-01-27T00:07:08;50.17;;;26.80;;
78877;SDS011;68257;43.514;1.498;2024-01-27T00:09:33;47.07;;;24.77;;
78877;SDS011;68257;43.514;1.498;2024-01-27T00:11:59;51.87;;;26.00;;
78877;SDS011;68257;43.514;1.498;2024-01-27T00:14:24;57.80;;;25.93;;
78877;SDS011;68257;43.514;1.498;2024-01-27T00:16:50;68.45;;;27.45;;
78877;SDS011;68257;43.514;1.498;2024-01-27T00:19:15;54.63;;;26.13;;
78877;SDS011;68257;43.514;1.498;2024-01-27T00:21:41;57.37;;;25.60;;
78877;SDS011;68257;43.514;1.498;2024-01-27T00:24:06;75.17;;;25.90;;
78877;SDS011;68257;43.514;1.498;2024-01-27T00:26:31;64.67;;;29.17;;
78877;SDS011;68257;43.514;1.498;2024-01-27T00:28:57;65.85;;;28.52;;
78877;SDS011;68257;43.514;1.498;2024-01-27T00:31:22;64.80;;;25.87;;
78877;SDS011;68257;43.514;1.498;2024-01-27T00:33:48;62.67;;;26.07;;
78877;SDS011;68257;43.514;1.498;2024-01-27T00:36:13;59.50;;;25.67;;
78877;SDS011;68257;43.514;1.498;2024-01-27T00:38:38;63.30;;;26.03;;
78877;SDS011;68257;43.514;1.498;2024-01-27T00:41:04;68.70;;;25.17;;
78877;SDS011;68257;43.514;1.498;2024-01-27T00:43:29;67.10;;;24.73;;
78877;SDS011;68257;43.514;1.498;2024-01-27T00:45:55;69.30;;;24.93;;
78877;SDS011;68257;43.514;1.498;2024-01-27T00:48:21;67.80;;;23.55;;
78877;SDS011;68257;43.514;1.498;2024-01-27T00:50:47;74.93;;;23.92;;
78877;SDS011;68257;43.514;1.498;2024-01-27T00:53:13;67.37;;;23.03;;
78877;SDS011;68257;43.514;1.498;2024-01-27T00:55:38;65.67;;;21.43;;
78877;SDS011;68257;43.514;1.498;2024-01-27T00:58:03;77.10;;;22.90;;
78877;SDS011;68257;43.514;1.498;2024-01-27T01:00:29;85.37;;;22.30;;
78877;SDS011;68257;43.514;1.498;2024-01-27T01:02:54;70.90;;;20.40;;
78877;SDS011;68257;43.514;1.498;2024-01-27T01:05:19;76.28;;;20.17;;
78877;SDS011;68257;43.514;1.498;2024-01-27T01:07:45;67.10;;;21.23;;
78877;SDS011;68257;43.514;1.498;2024-01-27T01:10:10;67.67;;;21.33;;
78877;SDS011;68257;43.514;1.498;2024-01-27T01:12:36;79.60;;;20.47;;
78877;SDS011;68257;43.514;1.498;2024-01-27T01:15:01;60.63;;;18.57;;
78877;SDS011;68257;43.514;1.498;2024-01-27T01:17:27;62.63;;;17.85;;
78877;SDS011;68257;43.514;1.498;2024-01-27T01:19:52;47.43;;;15.90;;
78877;SDS011;68257;43.514;1.498;2024-01-27T01:22:18;49.80;;;16.73;;
78877;SDS011;68257;43.514;1.498;2024-01-27T01:24:43;46.27;;;14.50;;
78877;SDS011;68257;43.514;1.498;2024-01-27T01:27:08;41.03;;;14.90;;
78877;SDS011;68257;43.514;1.498;2024-01-27T01:29:34;39.97;;;14.88;;
78877;SDS011;68257;43.514;1.498;2024-01-27T01:32:00;41.63;;;14.17;;
78877;SDS011;68257;43.514;1.498;2024-01-27T01:34:27;46.95;;;15.05;;
78877;SDS011;68257;43.514;1.498;2024-01-27T01:36:53;59.38;;;15.70;;
78877;SDS011;68257;43.514;1.498;2024-01-27T01:39:19;40.33;;;15.73;;
78877;SDS011;68257;43.514;1.498;2024-01-27T01:41:44;50.47;;;15.90;;
78877;SDS011;68257;43.514;1.498;2024-01-27T01:44:10;59.85;;;15.68;;
78877;SDS011;68257;43.514;1.498;2024-01-27T01:46:35;56.50;;;15.40;;
78877;SDS011;68257;43.514;1.498;2024-01-27T01:49:01;42.43;;;14.93;;
78877;SDS011;68257;43.514;1.498;2024-01-27T01:51:26;50.40;;;13.53;;
78877;SDS011;68257;43.514;1.498;2024-01-27T01:53:57;41.72;;;13.20;;
78877;SDS011;68257;43.514;1.498;2024-01-27T01:56:23;58.45;;;13.70;;
78877;SDS011;68257;43.514;1.498;2024-01-27T01:58:49;52.43;;;13.37;;
78877;SDS011;68257;43.514;1.498;2024-01-27T02:01:14;49.20;;;12.75;;
78877;SDS011;68257;43.514;1.498;2024-01-27T02:03:50;38.55;;;12.20;;
78877;SDS011;68257;43.514;1.498;2024-01-27T02:06:16;38.63;;;12.32;;
78877;SDS011;68257;43.514;1.498;2024-01-27T02:08:42;40.37;;;11.40;;
78877;SDS011;68257;43.514;1.498;2024-01-27T02:11:07;40.33;;;11.83;;
78877;SDS011;68257;43.514;1.498;2024-01-27T02:13:33;37.38;;;11.90;;
78877;SDS011;68257;43.514;1.498;2024-01-27T02:15:58;33.95;;;10.95;;
78877;SDS011;68257;43.514;1.498;2024-01-27T02:18:23;40.20;;;10.67;;
78877;SDS011;68257;43.514;1.498;2024-01-27T02:20:49;28.47;;;10.10;;
78877;SDS011;68257;43.514;1.498;2024-01-27T02:23:14;40.73;;;9.13;;
78877;SDS011;68257;43.514;1.498;2024-01-27T02:25:40;47.77;;;10.20;;
78877;SDS011;68257;43.514;1.498;2024-01-27T02:28:05;28.95;;;9.70;;
78877;SDS011;68257;43.514;1.498;2024-01-27T02:30:30;56.20;;;10.02;;
78877;SDS011;68257;43.514;1.498;2024-01-27T02:32:56;48.20;;;9.97;;
78877;SDS011;68257;43.514;1.498;2024-01-27T02:35:22;46.80;;;9.80;;
78877;SDS011;68257;43.514;1.498;2024-01-27T02:37:48;29.00;;;9.97;;
78877;SDS011;68257;43.514;1.498;2024-01-27T02:40:13;24.20;;;9.30;;
78877;SDS011;68257;43.514;1.498;2024-01-27T02:42:39;26.23;;;10.23;;
78877;SDS011;68257;43.514;1.498;2024-01-27T02:45:06;23.80;;;9.57;;
78877;SDS011;68257;43.514;1.498;2024-01-27T02:47:32;20.53;;;8.73;;
78877;SDS011;68257;43.514;1.498;2024-01-27T02:49:57;21.97;;;8.53;;
78877;SDS011;68257;43.514;1.498;2024-01-27T02:52:23;20.33;;;8.70;;
78877;SDS011;68257;43.514;1.498;2024-01-27T02:54:48;19.30;;;8.45;;
78877;SDS011;68257;43.514;1.498;2024-01-27T02:57:13;41.33;;;8.85;;
78877;SDS011;68257;43.514;1.498;2024-01-27T02:59:40;26.80;;;8.57;;
78877;SDS011;68257;43.514;1.498;2024-01-27T03:02:06;57.72;;;8.55;;
78877;SDS011;68257;43.514;1.498;2024-01-27T03:04:31;36.23;;;8.67;;
78877;SDS011;68257;43.514;1.498;2024-01-27T03:06:56;39.43;;;8.57;;
78877;SDS011;68257;43.514;1.498;2024-01-27T03:09:22;26.97;;;7.83;;
78877;SDS011;68257;43.514;1.498;2024-01-27T03:11:47;27.33;;;8.37;;
78877;SDS011;68257;43.514;1.498;2024-01-27T03:14:13;26.13;;;8.45;;
78877;SDS011;68257;43.514;1.498;2024-01-27T03:16:40;38.22;;;8.02;;
78877;SDS011;68257;43.514;1.498;2024-01-27T03:19:05;61.93;;;8.57;;
78877;SDS011;68257;43.514;1.498;2024-01-27T03:21:31;39.42;;;8.43;;
78877;SDS011;68257;43.514;1.498;2024-01-27T03:23:57;42.58;;;8.05;;
78877;SDS011;68257;43.514;1.498;2024-01-27T03:26:23;28.50;;;8.63;;
78877;SDS011;68257;43.514;1.498;2024-01-27T03:28:48;32.17;;;9.20;;
78877;SDS011;68257;43.514;1.498;2024-01-27T03:31:13;25.23;;;8.77;;
78877;SDS011;68257;43.514;1.498;2024-01-27T03:33:39;50.28;;;8.60;;
78877;SDS011;68257;43.514;1.498;2024-01-27T03:36:09;34.20;;;9.18;;
78877;SDS011;68257;43.514;1.498;2024-01-27T03:38:40;29.17;;;7.93;;
78877;SDS011;68257;43.514;1.498;2024-01-27T03:41:06;28.23;;;8.68;;
78877;SDS011;68257;43.514;1.498;2024-01-27T03:43:31;34.20;;;8.65;;
78877;SDS011;68257;43.514;1.498;2024-01-27T03:45:58;22.35;;;8.45;;
78877;SDS011;68257;43.514;1.498;2024-01-27T03:48:23;31.40;;;7.87;;
78877;SDS011;68257;43.514;1.498;2024-01-27T03:50:49;43.35;;;7.78;;
78877;SDS011;68257;43.514;1.498;2024-01-27T03:53:14;81.47;;;7.30;;
78877;SDS011;68257;43.514;1.498;2024-01-27T03:55:40;36.87;;;6.70;;
78877;SDS011;68257;43.514;1.498;2024-01-27T03:58:05;50.97;;;7.50;;
78877;SDS011;68257;43.514;1.498;2024-01-27T04:00:31;80.97;;;7.93;;
78877;SDS011;68257;43.514;1.498;2024-01-27T04:02:58;75.15;;;8.35;;
78877;SDS011;68257;43.514;1.498;2024-01-27T04:05:24;86.50;;;7.97;;
78877;SDS011;68257;43.514;1.498;2024-01-27T04:07:49;148.43;;;8.90;;
78877;SDS011;68257;43.514;1.498;2024-01-27T04:10:16;66.07;;;8.10;;
78877;SDS011;68257;43.514;1.498;2024-01-27T04:12:42;106.18;;;8.07;;
78877;SDS011;68257;43.514;1.498;2024-01-27T04:15:08;32.63;;;8.07;;
78877;SDS011;68257;43.514;1.498;2024-01-27T04:17:34;45.50;;;8.20;;
78877;SDS011;68257;43.514;1.498;2024-01-27T04:20:00;146.40;;;8.83;;
78877;SDS011;68257;43.514;1.498;2024-01-27T04:22:25;81.95;;;8.40;;
78877;SDS011;68257;43.514;1.498;2024-01-27T04:24:51;95.03;;;8.40;;
78877;SDS011;68257;43.514;1.498;2024-01-27T04:27:16;57.53;;;8.27;;
78877;SDS011;68257;43.514;1.498;2024-01-27T04:29:41;137.37;;;9.00;;
78877;SDS011;68257;43.514;1.498;2024-01-27T04:32:07;109.23;;;9.13;;
78877;SDS011;68257;43.514;1.498;2024-01-27T04:34:32;61.07;;;9.37;;
78877;SDS011;68257;43.514;1.498;2024-01-27T04:36:57;174.73;;;8.47;;
78877;SDS011;68257;43.514;1.498;2024-01-27T04:39:23;152.30;;;9.40;;
78877;SDS011;68257;43.514;1.498;2024-01-27T04:41:48;102.30;;;8.98;;
78877;SDS011;68257;43.514;1.498;2024-01-27T04:44:14;90.77;;;7.73;;
78877;SDS011;68257;43.514;1.498;2024-01-27T04:46:39;83.40;;;7.60;;
78877;SDS011;68257;43.514;1.498;2024-01-27T04:49:05;74.63;;;7.35;;
78877;SDS011;68257;43.514;1.498;2024-01-27T04:51:30;125.33;;;8.53;;
78877;SDS011;68257;43.514;1.498;2024-01-27T04:53:56;116.10;;;7.67;;
78877;SDS011;68257;43.514;1.498;2024-01-27T04:56:21;38.37;;;7.60;;
78877;SDS011;68257;43.514;1.498;2024-01-27T04:58:46;148.07;;;8.43;;
78877;SDS011;68257;43.514;1.498;2024-01-27T05:01:12;93.40;;;8.20;;
78877;SDS011;68257;43.514;1.498;2024-01-27T05:03:37;63.80;;;8.33;;
78877;SDS011;68257;43.514;1.498;2024-01-27T05:06:03;45.03;;;8.27;;
78877;SDS011;68257;43.514;1.498;2024-01-27T05:08:28;30.17;;;6.73;;
78877;SDS011;68257;43.514;1.498;2024-01-27T05:10:54;50.47;;;7.30;;
78877;SDS011;68257;43.514;1.498;2024-01-27T05:13:19;31.35;;;7.43;;
78877;SDS011;68257;43.514;1.498;2024-01-27T05:15:44;38.50;;;7.22;;
78877;SDS011;68257;43.514;1.498;2024-01-27T05:18:10;37.37;;;7.00;;
78877;SDS011;68257;43.514;1.498;2024-01-27T05:20:36;68.53;;;6.83;;
78877;SDS011;68257;43.514;1.498;2024-01-27T05:23:01;29.15;;;6.50;;
78877;SDS011;68257;43.514;1.498;2024-01-27T05:25:26;29.90;;;5.40;;
78877;SDS011;68257;43.514;1.498;2024-01-27T05:27:52;38.77;;;5.67;;
78877;SDS011;68257;43.514;1.498;2024-01-27T05:30:18;47.47;;;5.83;;
78877;SDS011;68257;43.514;1.498;2024-01-27T05:32:43;43.38;;;5.35;;
78877;SDS011;68257;43.514;1.498;2024-01-27T05:35:08;49.08;;;5.60;;
78877;SDS011;68257;43.514;1.498;2024-01-27T05:37:35;31.17;;;5.33;;
78877;SDS011;68257;43.514;1.498;2024-01-27T05:40:00;23.48;;;5.40;;
78877;SDS011;68257;43.514;1.498;2024-01-27T05:42:27;22.30;;;4.77;;
78877;SDS011;68257;43.514;1.498;2024-01-27T05:44:52;10.82;;;4.80;;
78877;SDS011;68257;43.514;1.498;2024-01-27T05:47:17;44.13;;;4.97;;
78877;SDS011;68257;43.514;1.498;2024-01-27T05:49:43;71.47;;;5.30;;
78877;SDS011;68257;43.514;1.498;2024-01-27T05:52:08;32.47;;;5.00;;
78877;SDS011;68257;43.514;1.498;2024-01-27T05:54:33;19.93;;;4.53;;
78877;SDS011;68257;43.514;1.498;2024-01-27T05:56:59;35.95;;;4.80;;
78877;SDS011;68257;43.514;1.498;2024-01-27T05:59:25;24.20;;;4.90;;
78877;SDS011;68257;43.514;1.498;2024-01-27T06:01:50;33.83;;;4.70;;
78877;SDS011;68257;43.514;1.498;2024-01-27T06:04:16;23.90;;;4.30;;
78877;SDS011;68257;43.514;1.498;2024-01-27T06:06:41;25.10;;;4.43;;
78877;SDS011;68257;43.514;1.498;2024-01-27T06:09:07;19.73;;;4.90;;
78877;SDS011;68257;43.514;1.498;2024-01-27T06:11:36;15.25;;;4.18;;
78877;SDS011;68257;43.514;1.498;2024-01-27T06:14:02;14.07;;;4.47;;
78877;SDS011;68257;43.514;1.498;2024-01-27T06:16:27;24.35;;;4.22;;
78877;SDS011;68257;43.514;1.498;2024-01-27T06:18:52;26.20;;;4.40;;
78877;SDS011;68257;43.514;1.498;2024-01-27T06:21:19;33.10;;;4.30;;
78877;SDS011;68257;43.514;1.498;2024-01-27T06:23:45;14.73;;;4.13;;
78877;SDS011;68257;43.514;1.498;2024-01-27T06:26:12;13.23;;;4.43;;
78877;SDS011;68257;43.514;1.498;2024-01-27T06:28:38;16.13;;;4.10;;
78877;SDS011;68257;43.514;1.498;2024-01-27T06:31:03;245.80;;;222.33;;
78877;SDS011;68257;43.514;1.498;2024-01-27T06:33:29;28.77;;;12.55;;
78877;SDS011;68257;43.514;1.498;2024-01-27T06:35:54;67.77;;;44.53;;
78877;SDS011;68257;43.514;1.498;2024-01-27T06:38:20;64.80;;;8.80;;
78877;SDS011;68257;43.514;1.498;2024-01-27T06:40:45;51.30;;;11.40;;
78877;SDS011;68257;43.514;1.498;2024-01-27T06:43:11;27.48;;;8.00;;
78877;SDS011;68257;43.514;1.498;2024-01-27T06:45:38;31.75;;;4.45;;
78877;SDS011;68257;43.514;1.498;2024-01-27T06:48:03;12.82;;;3.90;;
78877;SDS011;68257;43.514;1.498;2024-01-27T06:50:29;21.00;;;5.03;;
78877;SDS011;68257;43.514;1.498;2024-01-27T06:52:55;12.85;;;3.50;;
78877;SDS011;68257;43.514;1.498;2024-01-27T06:55:20;8.43;;;2.93;;
78877;SDS011;68257;43.514;1.498;2024-01-27T06:57:45;5.73;;;3.40;;
78877;SDS011;68257;43.514;1.498;2024-01-27T07:00:11;7.67;;;3.10;;
78877;SDS011;68257;43.514;1.498;2024-01-27T07:02:39;22.17;;;3.60;;
78877;SDS011;68257;43.514;1.498;2024-01-27T07:05:05;10.83;;;3.30;;
78877;SDS011;68257;43.514;1.498;2024-01-27T07:07:31;7.50;;;2.80;;
78877;SDS011;68257;43.514;1.498;2024-01-27T07:09:57;17.37;;;4.57;;
78877;SDS011;68257;43.514;1.498;2024-01-27T07:12:23;17.15;;;3.13;;
78877;SDS011;68257;43.514;1.498;2024-01-27T07:14:48;14.63;;;2.70;;
78877;SDS011;68257;43.514;1.498;2024-01-27T07:17:13;22.27;;;3.50;;
78877;SDS011;68257;43.514;1.498;2024-01-27T07:19:39;21.08;;;3.08;;
78877;SDS011;68257;43.514;1.498;2024-01-27T07:22:04;11.20;;;2.77;;
78877;SDS011;68257;43.514;1.498;2024-01-27T07:24:30;20.90;;;2.90;;
78877;SDS011;68257;43.514;1.498;2024-01-27T07:26:55;17.40;;;3.30;;
78877;SDS011;68257;43.514;1.498;2024-01-27T07:29:21;19.67;;;3.83;;
78877;SDS011;68257;43.514;1.498;2024-01-27T07:31:47;13.27;;;3.67;;
78877;SDS011;68257;43.514;1.498;2024-01-27T07:34:12;9.35;;;3.70;;
78877;SDS011;68257;43.514;1.498;2024-01-27T07:36:38;14.47;;;3.60;;
78877;SDS011;68257;43.514;1.498;2024-01-27T07:39:04;26.50;;;5.70;;
78877;SDS011;68257;43.514;1.498;2024-01-27T07:41:30;12.15;;;3.90;;
78877;SDS011;68257;43.514;1.498;2024-01-27T07:43:55;28.02;;;2.97;;
78877;SDS011;68257;43.514;1.498;2024-01-27T07:46:21;21.30;;;5.87;;
78877;SDS011;68257;43.514;1.498;2024-01-27T07:48:48;9.63;;;2.92;;
78877;SDS011;68257;43.514;1.498;2024-01-27T07:51:14;14.93;;;2.90;;
78877;SDS011;68257;43.514;1.498;2024-01-27T07:53:39;11.85;;;4.15;;
78877;SDS011;68257;43.514;1.498;2024-01-27T07:56:05;9.37;;;2.77;;
78877;SDS011;68257;43.514;1.498;2024-01-27T07:58:31;13.68;;;3.65;;
78877;SDS011;68257;43.514;1.498;2024-01-27T08:00:56;18.97;;;4.03;;
78877;SDS011;68257;43.514;1.498;2024-01-27T08:03:22;19.80;;;3.20;;
78877;SDS011;68257;43.514;1.498;2024-01-27T08:05:47;21.60;;;6.47;;
78877;SDS011;68257;43.514;1.498;2024-01-27T08:08:13;53.70;;;9.00;;
78877;SDS011;68257;43.514;1.498;2024-01-27T08:10:38;46.67;;;11.87;;
78877;SDS011;68257;43.514;1.498;2024-01-27T08:13:05;37.28;;;5.50;;
78877;SDS011;68257;43.514;1.498;2024-01-27T08:15:30;49.13;;;5.40;;
78877;SDS011;68257;43.514;1.498;2024-01-27T08:17:55;28.93;;;3.80;;
78877;SDS011;68257;43.514;1.498;2024-01-27T08:20:21;20.30;;;10.30;;
78877;SDS011;68257;43.514;1.498;2024-01-27T08:22:46;18.45;;;5.07;;
78877;SDS011;68257;43.514;1.498;2024-01-27T08:25:15;30.97;;;4.07;;
78877;SDS011;68257;43.514;1.498;2024-01-27T08:27:41;48.85;;;3.92;;
78877;SDS011;68257;43.514;1.498;2024-01-27T08:30:07;22.50;;;5.63;;
78877;SDS011;68257;43.514;1.498;2024-01-27T08:32:33;24.40;;;10.00;;
78877;SDS011;68257;43.514;1.498;2024-01-27T08:34:58;42.72;;;20.90;;
78877;SDS011;68257;43.514;1.498;2024-01-27T08:37:23;98.63;;;30.37;;
78877;SDS011;68257;43.514;1.498;2024-01-27T08:39:49;28.73;;;10.87;;
78877;SDS011;68257;43.514;1.498;2024-01-27T08:42:16;32.15;;;6.65;;
78877;SDS011;68257;43.514;1.498;2024-01-27T08:44:41;28.50;;;8.13;;
78877;SDS011;68257;43.514;1.498;2024-01-27T08:47:06;29.07;;;6.40;;
78877;SDS011;68257;43.514;1.498;2024-01-27T08:49:32;19.50;;;8.33;;
78877;SDS011;68257;43.514;1.498;2024-01-27T08:51:57;26.42;;;8.93;;
78877;SDS011;68257;43.514;1.498;2024-01-27T08:54:23;30.17;;;12.50;;
78877;SDS011;68257;43.514;1.498;2024-01-27T08:56:48;17.37;;;8.30;;
78877;SDS011;68257;43.514;1.498;2024-01-27T08:59:14;19.98;;;5.63;;
78877;SDS011;68257;43.514;1.498;2024-01-27T09:01:39;34.28;;;13.00;;
78877;SDS011;68257;43.514;1.498;2024-01-27T09:04:05;15.93;;;4.20;;
78877;SDS011;68257;43.514;1.498;2024-01-27T09:06:30;37.27;;;5.43;;
78877;SDS011;68257;43.514;1.498;2024-01-27T09:08:55;11.70;;;4.60;;
78877;SDS011;68257;43.514;1.498;2024-01-27T09:11:21;24.27;;;5.30;;
78877;SDS011;68257;43.514;1.498;2024-01-27T09:13:52;12.00;;;5.57;;
78877;SDS011;68257;43.514;1.498;2024-01-27T09:16:17;55.67;;;5.50;;
78877;SDS011;68257;43.514;1.498;2024-01-27T09:18:43;25.20;;;4.97;;
78877;SDS011;68257;43.514;1.498;2024-01-27T09:21:08;22.27;;;5.67;;
78877;SDS011;68257;43.514;1.498;2024-01-27T09:23:34;77.37;;;6.23;;
78877;SDS011;68257;43.514;1.498;2024-01-27T09:26:00;22.83;;;6.38;;
78877;SDS011;68257;43.514;1.498;2024-01-27T09:28:25;16.48;;;5.57;;
78877;SDS011;68257;43.514;1.498;2024-01-27T09:30:51;14.37;;;5.20;;
78877;SDS011;68257;43.514;1.498;2024-01-27T09:33:16;14.50;;;5.03;;
78877;SDS011;68257;43.514;1.498;2024-01-27T09:35:44;11.40;;;4.63;;
78877;SDS011;68257;43.514;1.498;2024-01-27T09:38:11;19.83;;;4.78;;
78877;SDS011;68257;43.514;1.498;2024-01-27T09:40:39;18.40;;;6.50;;
78877;SDS011;68257;43.514;1.498;2024-01-27T09:43:05;43.30;;;4.47;;
78877;SDS011;68257;43.514;1.498;2024-01-27T09:45:30;40.10;;;4.23;;
78877;SDS011;68257;43.514;1.498;2024-01-27T09:47:56;29.30;;;5.07;;
78877;SDS011;68257;43.514;1.498;2024-01-27T09:50:23;23.55;;;4.30;;
78877;SDS011;68257;43.514;1.498;2024-01-27T09:52:48;51.53;;;4.13;;
78877;SDS011;68257;43.514;1.498;2024-01-27T09:55:13;16.63;;;3.87;;
78877;SDS011;68257;43.514;1.498;2024-01-27T09:57:39;26.42;;;4.30;;
78877;SDS011;68257;43.514;1.498;2024-01-27T10:00:09;15.30;;;3.80;;
78877;SDS011;68257;43.514;1.498;2024-01-27T10:02:37;12.98;;;3.78;;
78877;SDS011;68257;43.514;1.498;2024-01-27T10:05:05;8.48;;;3.80;;
78877;SDS011;68257;43.514;1.498;2024-01-27T10:07:31;10.52;;;3.80;;
78877;SDS011;68257;43.514;1.498;2024-01-27T10:09:56;9.47;;;3.90;;
78877;SDS011;68257;43.514;1.498;2024-01-27T10:12:22;7.87;;;4.07;;
78877;SDS011;68257;43.514;1.498;2024-01-27T10:14:47;42.88;;;12.15;;
78877;SDS011;68257;43.514;1.498;2024-01-27T10:17:21;81.07;;;5.60;;
78877;SDS011;68257;43.514;1.498;2024-01-27T10:19:48;72.13;;;64.80;;
78877;SDS011;68257;43.514;1.498;2024-01-27T10:22:26;26.05;;;15.38;;
78877;SDS011;68257;43.514;1.498;2024-01-27T10:24:51;11.35;;;5.15;;
78877;SDS011;68257;43.514;1.498;2024-01-27T10:27:17;13.00;;;3.63;;
78877;SDS011;68257;43.514;1.498;2024-01-27T10:29:51;8.35;;;3.40;;
78877;SDS011;68257;43.514;1.498;2024-01-27T10:32:22;4.80;;;3.27;;
78877;SDS011;68257;43.514;1.498;2024-01-27T10:35:06;34.35;;;3.80;;
78877;SDS011;68257;43.514;1.498;2024-01-27T10:37:36;8.25;;;3.58;;
78877;SDS011;68257;43.514;1.498;2024-01-27T10:40:02;10.15;;;3.60;;
78877;SDS011;68257;43.514;1.498;2024-01-27T10:42:29;26.30;;;4.97;;
78877;SDS011;68257;43.514;1.498;2024-01-27T10:44:57;17.70;;;4.50;;
78877;SDS011;68257;43.514;1.498;2024-01-27T10:47:23;14.80;;;4.20;;
78877;SDS011;68257;43.514;1.498;2024-01-27T10:49:52;8.52;;;3.92;;
78877;SDS011;68257;43.514;1.498;2024-01-27T10:52:20;16.27;;;4.85;;
78877;SDS011;68257;43.514;1.498;2024-01-27T10:54:58;19.50;;;7.05;;
78877;SDS011;68257;43.514;1.498;2024-01-27T10:57:28;7.67;;;4.13;;
78877;SDS011;68257;43.514;1.498;2024-01-27T10:59:54;10.73;;;6.65;;
78877;SDS011;68257;43.514;1.498;2024-01-27T11:02:21;22.63;;;8.85;;
78877;SDS011;68257;43.514;1.498;2024-01-27T11:04:47;8.63;;;4.23;;
78877;SDS011;68257;43.514;1.498;2024-01-27T11:07:13;15.50;;;4.40;;
78877;SDS011;68257;43.514;1.498;2024-01-27T11:09:38;14.67;;;4.13;;
78877;SDS011;68257;43.514;1.498;2024-01-27T11:12:04;15.48;;;3.80;;
78877;SDS011;68257;43.514;1.498;2024-01-27T11:14:31;13.15;;;3.65;;
78877;SDS011;68257;43.514;1.498;2024-01-27T11:16:56;7.97;;;4.10;;
78877;SDS011;68257;43.514;1.498;2024-01-27T11:19:22;6.22;;;4.00;;
78877;SDS011;68257;43.514;1.498;2024-01-27T11:21:58;7.90;;;3.83;;
78877;SDS011;68257;43.514;1.498;2024-01-27T11:24:28;10.60;;;5.55;;
78877;SDS011;68257;43.514;1.498;2024-01-27T11:27:02;7.93;;;4.10;;
78877;SDS011;68257;43.514;1.498;2024-01-27T11:29:28;8.10;;;5.10;;
78877;SDS011;68257;43.514;1.498;2024-01-27T11:31:54;17.77;;;6.00;;
78877;SDS011;68257;43.514;1.498;2024-01-27T11:34:21;9.02;;;5.03;;
78877;SDS011;68257;43.514;1.498;2024-01-27T11:36:46;23.77;;;5.20;;
78877;SDS011;68257;43.514;1.498;2024-01-27T11:39:27;10.00;;;4.37;;
78877;SDS011;68257;43.514;1.498;2024-01-27T11:42:16;7.55;;;5.35;;
78877;SDS011;68257;43.514;1.498;2024-01-27T11:44:40;10.75;;;4.75;;
78877;SDS011;68257;43.514;1.498;2024-01-27T11:47:13;8.63;;;5.95;;
78877;SDS011;68257;43.514;1.498;2024-01-27T11:49:52;7.97;;;4.85;;
78877;SDS011;68257;43.514;1.498;2024-01-27T11:52:18;7.40;;;4.60;;
78877;SDS011;68257;43.514;1.498;2024-01-27T11:54:44;8.77;;;5.15;;
78877;SDS011;68257;43.514;1.498;2024-01-27T11:57:09;7.63;;;4.97;;
78877;SDS011;68257;43.514;1.498;2024-01-27T11:59:35;7.30;;;5.43;;
78877;SDS011;68257;43.514;1.498;2024-01-27T12:02:01;6.60;;;4.80;;
78877;SDS011;68257;43.514;1.498;2024-01-27T12:04:27;6.07;;;4.67;;
78877;SDS011;68257;43.514;1.498;2024-01-27T12:06:52;6.82;;;4.88;;
78877;SDS011;68257;43.514;1.498;2024-01-27T12:09:18;7.23;;;4.40;;
78877;SDS011;68257;43.514;1.498;2024-01-27T12:11:44;7.10;;;4.78;;
78877;SDS011;68257;43.514;1.498;2024-01-27T12:14:10;6.95;;;4.18;;
78877;SDS011;68257;43.514;1.498;2024-01-27T12:16:36;6.53;;;4.43;;
78877;SDS011;68257;43.514;1.498;2024-01-27T12:19:01;6.87;;;4.70;;
78877;SDS011;68257;43.514;1.498;2024-01-27T12:21:27;6.97;;;4.43;;
78877;SDS011;68257;43.514;1.498;2024-01-27T12:23:53;6.63;;;4.97;;
78877;SDS011;68257;43.514;1.498;2024-01-27T12:26:20;9.90;;;6.55;;
78877;SDS011;68257;43.514;1.498;2024-01-27T12:28:47;8.18;;;5.13;;
78877;SDS011;68257;43.514;1.498;2024-01-27T12:31:13;6.57;;;4.80;;
78877;SDS011;68257;43.514;1.498;2024-01-27T12:33:40;7.63;;;5.10;;
78877;SDS011;68257;43.514;1.498;2024-01-27T12:36:13;8.18;;;5.78;;
78877;SDS011;68257;43.514;1.498;2024-01-27T12:38:38;7.57;;;5.73;;
78877;SDS011;68257;43.514;1.498;2024-01-27T12:41:04;9.53;;;5.70;;
78877;SDS011;68257;43.514;1.498;2024-01-27T12:43:29;9.48;;;6.20;;
78877;SDS011;68257;43.514;1.498;2024-01-27T12:45:55;8.90;;;6.13;;
78877;SDS011;68257;43.514;1.498;2024-01-27T12:48:20;9.60;;;7.00;;
78877;SDS011;68257;43.514;1.498;2024-01-27T12:50:46;9.87;;;7.00;;
78877;SDS011;68257;43.514;1.498;2024-01-27T12:53:11;9.63;;;6.97;;
78877;SDS011;68257;43.514;1.498;2024-01-27T12:55:36;8.30;;;6.65;;
78877;SDS011;68257;43.514;1.498;2024-01-27T12:58:02;8.17;;;6.27;;
78877;SDS011;68257;43.514;1.498;2024-01-27T13:00:27;10.33;;;6.53;;
78877;SDS011;68257;43.514;1.498;2024-01-27T13:02:53;11.73;;;7.78;;
78877;SDS011;68257;43.514;1.498;2024-01-27T13:05:18;10.65;;;7.40;;
78877;SDS011;68257;43.514;1.498;2024-01-27T13:07:44;12.27;;;8.47;;
78877;SDS011;68257;43.514;1.498;2024-01-27T13:10:10;10.65;;;7.95;;
78877;SDS011;68257;43.514;1.498;2024-01-27T13:12:35;19.30;;;11.17;;
78877;SDS011;68257;43.514;1.498;2024-01-27T13:15:01;9.77;;;7.07;;
78877;SDS011;68257;43.514;1.498;2024-01-27T13:17:26;10.17;;;7.17;;
78877;SDS011;68257;43.514;1.498;2024-01-27T13:19:51;8.10;;;6.80;;
78877;SDS011;68257;43.514;1.498;2024-01-27T13:22:17;26.90;;;12.27;;
78877;SDS011;68257;43.514;1.498;2024-01-27T13:24:42;52.03;;;31.27;;
78877;SDS011;68257;43.514;1.498;2024-01-27T13:27:08;30.67;;;18.20;;
78877;SDS011;68257;43.514;1.498;2024-01-27T13:29:34;11.00;;;7.30;;
78877;SDS011;68257;43.514;1.498;2024-01-27T13:31:59;12.07;;;8.93;;
78877;SDS011;68257;43.514;1.498;2024-01-27T13:34:27;9.18;;;5.88;;
78877;SDS011;68257;43.514;1.498;2024-01-27T13:36:53;8.00;;;6.47;;
78877;SDS011;68257;43.514;1.498;2024-01-27T13:39:19;8.63;;;5.88;;
78877;SDS011;68257;43.514;1.498;2024-01-27T13:41:44;8.53;;;6.33;;
78877;SDS011;68257;43.514;1.498;2024-01-27T13:44:09;7.90;;;5.78;;
78877;SDS011;68257;43.514;1.498;2024-01-27T13:46:35;7.57;;;5.67;;
78877;SDS011;68257;43.514;1.498;2024-01-27T13:49:00;8.33;;;6.00;;
78877;SDS011;68257;43.514;1.498;2024-01-27T13:51:25;8.13;;;6.10;;
78877;SDS011;68257;43.514;1.498;2024-01-27T13:53:51;7.77;;;6.13;;
78877;SDS011;68257;43.514;1.498;2024-01-27T13:56:16;8.33;;;6.10;;
78877;SDS011;68257;43.514;1.498;2024-01-27T13:58:42;9.90;;;7.10;;
78877;SDS011;68257;43.514;1.498;2024-01-27T14:01:07;9.40;;;7.25;;
78877;SDS011;68257;43.514;1.498;2024-01-27T14:03:33;8.33;;;6.93;;
78877;SDS011;68257;43.514;1.498;2024-01-27T14:05:58;10.52;;;7.55;;
78877;SDS011;68257;43.514;1.498;2024-01-27T14:08:24;10.13;;;6.50;;
78877;SDS011;68257;43.514;1.498;2024-01-27T14:10:49;7.77;;;6.10;;
78877;SDS011;68257;43.514;1.498;2024-01-27T14:13:17;8.93;;;7.55;;
78877;SDS011;68257;43.514;1.498;2024-01-27T14:15:43;10.23;;;7.70;;
78877;SDS011;68257;43.514;1.498;2024-01-27T14:18:08;7.10;;;5.77;;
78877;SDS011;68257;43.514;1.498;2024-01-27T14:20:36;8.60;;;6.20;;
78877;SDS011;68257;43.514;1.498;2024-01-27T14:23:02;8.27;;;6.63;;
78877;SDS011;68257;43.514;1.498;2024-01-27T14:25:28;7.97;;;6.03;;
78877;SDS011;68257;43.514;1.498;2024-01-27T14:27:54;7.07;;;5.93;;